Temp: 13.8°C   Baro: 1018.5mb
  Wind: 4.0mph   Dir: NNW (347°)
  Rain: 0.0mm (0.0mm/hr)
  Solar: 302W/m2  Hum: 73%
 
Bath Spa Weather Station Historical Data
Daily Summary for November 4, 2019 Units:  Metric    English   Both
Daily Weekly Monthly Yearly Custom
  High: Low: Average:
Temperature: 12.9 °C 6.9 °C 9.7 °C
Dew Point: 10.1 °C 6.1 °C 7.9 °C
Humidity: 94% 79% 89%
Wind Speed: 10.3km/h 0km/h 2.4km/h
Wind Gust: 20.9km/h - -
Wind- - SSE
Pressure: 988.4 hPa 981.3 hPa -
Precipitation: 0.51 mm    
Historical Graphs
 
 
Tabular Data for November 4, 2019
Time Temperature Dew Point Pressure Wind Wind Speed Wind Gust Humidity Rainfall Rate (Hourly) solar
00:04 9.2 °C 7.8 °C 981.9 hPa Calm   1.6 km/h 91% 0 mm 0 W/m2
00:09 9.2 °C 7.8 °C 981.9 hPa Calm   1.6 km/h 91% 0 mm 0 W/m2
00:14 9.2 °C 7.8 °C 981.9 hPa SW 0.3 km/h 3.2 km/h 91% 0 mm 0 W/m2
00:19 9.2 °C 7.8 °C 981.9 hPa Calm   1.6 km/h 91% 0.25 mm 0 W/m2
00:24 9.2 °C 7.8 °C 981.9 hPa Calm     91% 0.25 mm 0 W/m2
00:29 9.2 °C 7.9 °C 981.9 hPa SW 0.5 km/h 1.6 km/h 91.3% 0.25 mm 0 W/m2
00:34 9.3 °C 8.1 °C 981.9 hPa SW 0.8 km/h 3.2 km/h 92% 0.25 mm 0 W/m2
00:39 9.2 °C 8.1 °C 981.9 hPa Calm   3.2 km/h 92% 0.25 mm 0 W/m2
00:44 9.2 °C 8 °C 981.9 hPa SW 0.2 km/h 1.6 km/h 92% 0.25 mm 0 W/m2
00:49 9.1 °C 7.9 °C 981.9 hPa SW 0.5 km/h 3.2 km/h 92% 0.25 mm 0 W/m2
00:54 9.1 °C 7.9 °C 981.9 hPa SW 1 km/h 4.8 km/h 92% 0.25 mm 0 W/m2
00:59 9.1 °C 7.9 °C 981.9 hPa Calm   3.2 km/h 92% 0.25 mm 0 W/m2
01:04 9.1 °C 7.9 °C 981.9 hPa SW 0.5 km/h 4.8 km/h 92% 0.25 mm 0 W/m2
01:09 9.1 °C 7.9 °C 981.9 hPa Calm     92% 0.25 mm 0 W/m2
01:14 9.1 °C 7.9 °C 981.9 hPa Calm     92% 0.25 mm 0 W/m2
01:19 9.1 °C 7.9 °C 981.6 hPa Calm     92% 0.25 mm 0 W/m2
01:24 9.1 °C 7.9 °C 981.9 hPa Calm     92% 0 mm 0 W/m2
01:29 9.1 °C 7.8 °C 981.9 hPa SW 0.3 km/h 3.2 km/h 92% 0 mm 0 W/m2
01:34 9 °C 7.8 °C 981.9 hPa SW 0.8 km/h 3.2 km/h 92% 0 mm 0 W/m2
01:39 9 °C 7.8 °C 981.9 hPa Calm   3.2 km/h 92.2% 0 mm 0 W/m2
01:44 9 °C 7.9 °C 981.9 hPa Calm   1.6 km/h 93% 0 mm 0 W/m2
01:49 9 °C 7.9 °C 981.6 hPa Calm     93% 0 mm 0 W/m2
01:54 8.9 °C 7.8 °C 981.6 hPa SW 0.6 km/h 4.8 km/h 92.8% 0 mm 0 W/m2
01:59 8.9 °C 7.8 °C 981.6 hPa SW 0.3 km/h 4.8 km/h 93% 0 mm 0 W/m2
02:04 8.9 °C 7.8 °C 981.6 hPa WSW 1.1 km/h 8 km/h 93% 0 mm 0 W/m2
02:09 8.9 °C 7.8 °C 981.6 hPa WSW 1.3 km/h 6.4 km/h 93% 0 mm 0 W/m2
02:14 8.9 °C 7.8 °C 981.6 hPa WSW 0.5 km/h 6.4 km/h 93% 0 mm 0 W/m2
02:19 8.8 °C 7.7 °C 981.6 hPa WSW 1.9 km/h 9.7 km/h 93% 0 mm 0 W/m2
02:24 8.8 °C 7.8 °C 981.6 hPa WSW 0.3 km/h 4.8 km/h 93% 0 mm 0 W/m2
02:29 8.8 °C 7.8 °C 981.6 hPa WSW 0.5 km/h 3.2 km/h 93% 0 mm 0 W/m2
02:34 8.9 °C 7.8 °C 981.6 hPa Calm   3.2 km/h 93% 0 mm 0 W/m2
02:39 8.9 °C 7.8 °C 981.6 hPa WSW 0.2 km/h 1.6 km/h 93% 0 mm 0 W/m2
02:44 8.9 °C 7.8 °C 981.6 hPa WSW 0.2 km/h 1.6 km/h 93% 0 mm 0 W/m2
02:49 8.9 °C 7.8 °C 981.6 hPa WSW 0.2 km/h 3.2 km/h 93% 0 mm 0 W/m2
02:54 8.9 °C 7.8 °C 981.6 hPa Calm   1.6 km/h 93% 0 mm 0 W/m2
02:59 8.9 °C 7.8 °C 981.6 hPa WSW 0.2 km/h 3.2 km/h 93% 0 mm 0 W/m2
03:04 8.9 °C 7.8 °C 981.6 hPa WSW 0.3 km/h 3.2 km/h 93% 0 mm 0 W/m2
03:09 8.8 °C 7.7 °C 981.6 hPa WSW 1.6 km/h 6.4 km/h 93% 0 mm 0 W/m2
03:14 8.8 °C 7.7 °C 981.6 hPa WSW 1.4 km/h 6.4 km/h 93% 0 mm 0 W/m2
03:19 8.8 °C 7.7 °C 981.3 hPa WSW 0.6 km/h 4.8 km/h 93% 0 mm 0 W/m2
03:24 8.7 °C 7.6 °C 981.6 hPa WSW 1.8 km/h 6.4 km/h 93% 0 mm 0 W/m2
03:29 8.6 °C 7.5 °C 981.6 hPa WSW 0.3 km/h 6.4 km/h 93% 0 mm 0 W/m2
03:34 8.6 °C 7.5 °C 981.6 hPa WSW 0.2 km/h 1.6 km/h 93% 0 mm 0 W/m2
03:39 8.6 °C 7.5 °C 981.6 hPa WSW 0.8 km/h 4.8 km/h 93% 0 mm 0 W/m2
03:44 8.5 °C 7.4 °C 981.6 hPa WSW 0.3 km/h 4.8 km/h 93% 0 mm 0 W/m2
03:49 8.4 °C 7.3 °C 981.6 hPa WSW 2.4 km/h 4.8 km/h 93% 0 mm 0 W/m2
03:54 8.3 °C 7.3 °C 981.6 hPa WSW 2.6 km/h 4.8 km/h 93% 0 mm 0 W/m2
03:59 8.3 °C 7.2 °C 981.6 hPa WSW 1 km/h 4.8 km/h 93% 0 mm 0 W/m2
04:04 8.2 °C 7.1 °C 981.6 hPa Calm   4.8 km/h 93% 0 mm 0 W/m2
04:09 8.2 °C 7.1 °C 981.6 hPa WSW 0.3 km/h 3.2 km/h 93% 0 mm 0 W/m2
04:14 8.2 °C 7.1 °C 981.6 hPa WSW 0.5 km/h 4.8 km/h 93% 0 mm 0 W/m2
04:19 8.2 °C 7.1 °C 981.3 hPa WSW 0.3 km/h 3.2 km/h 93% 0 mm 0 W/m2
04:24 8.2 °C 7.1 °C 981.3 hPa WSW 1.3 km/h 4.8 km/h 93% 0 mm 0 W/m2
04:29 8.1 °C 7 °C 981.3 hPa WSW 2.4 km/h 4.8 km/h 93% 0 mm 0 W/m2
04:34 8.1 °C 7 °C 981.6 hPa WSW 0.8 km/h 4.8 km/h 93% 0 mm 0 W/m2
04:39 8.2 °C 7.1 °C 981.6 hPa WNW 3.9 km/h 9.7 km/h 93% 0 mm 0 W/m2
04:44 8.2 °C 7.1 °C 981.6 hPa WNW 0.8 km/h 6.4 km/h 93% 0 mm 0 W/m2
04:49 8.1 °C 7 °C 981.6 hPa Calm     93% 0 mm 0 W/m2
04:54 8.1 °C 6.9 °C 981.6 hPa Calm     93% 0 mm 0 W/m2
04:59 7.9 °C 6.8 °C 981.6 hPa WNW 0.3 km/h 1.6 km/h 93% 0 mm 0 W/m2
05:04 7.8 °C 6.7 °C 981.6 hPa WNW 0.3 km/h 3.2 km/h 93% 0 mm 0 W/m2
05:09 7.8 °C 6.7 °C 981.6 hPa WNW 0.5 km/h 3.2 km/h 93% 0 mm 0 W/m2
05:14 7.8 °C 6.7 °C 981.6 hPa WNW 0.3 km/h 3.2 km/h 93% 0 mm 0 W/m2
05:19 7.8 °C 6.7 °C 981.6 hPa WNW 3.1 km/h 8 km/h 93% 0.25 mm 0 W/m2
05:24 7.8 °C 6.8 °C 981.6 hPa WNW 3.2 km/h 8 km/h 93% 0.25 mm 0 W/m2
05:29 7.9 °C 6.8 °C 981.6 hPa WNW 1.3 km/h 6.4 km/h 93% 0.25 mm 0 W/m2
05:34 7.9 °C 6.8 °C 981.6 hPa WNW 1.3 km/h 6.4 km/h 93% 0.25 mm 0 W/m2
05:39 8 °C 7 °C 981.6 hPa WNW 1.4 km/h 8 km/h 93.6% 0.25 mm 0 W/m2
05:44 8.1 °C 7.2 °C 981.3 hPa WNW 0.3 km/h 4.8 km/h 94% 0.25 mm 0 W/m2
05:49 8.1 °C 7.2 °C 981.3 hPa WNW 1.1 km/h 3.2 km/h 94% 0.25 mm 0 W/m2
05:54 7.9 °C 6.9 °C 981.3 hPa WNW 1.8 km/h 6.4 km/h 93.2% 0.25 mm 0 W/m2
05:59 7.9 °C 6.8 °C 981.3 hPa WNW 2.1 km/h 6.4 km/h 93% 0.25 mm 0 W/m2
06:04 7.8 °C 6.7 °C 981.3 hPa WNW 1.4 km/h 6.4 km/h 93% 0.25 mm 0 W/m2
06:09 7.8 °C 6.7 °C 981.3 hPa WNW 0.8 km/h 4.8 km/h 93% 0.25 mm 0 W/m2
06:14 7.8 °C 6.7 °C 981.3 hPa Calm   3.2 km/h 93% 0.25 mm 0 W/m2
06:19 7.8 °C 6.7 °C 981.3 hPa WNW 0.2 km/h 1.6 km/h 93% 0.25 mm 0 W/m2
06:24 7.8 °C 6.8 °C 981.3 hPa WNW 1.1 km/h 4.8 km/h 93.7% 0 mm 0 W/m2
06:29 7.7 °C 6.8 °C 981.3 hPa WNW 1.4 km/h 4.8 km/h 94% 0 mm 0 W/m2
06:34 7.6 °C 6.6 °C 981.3 hPa WNW 2.7 km/h 6.4 km/h 93.4% 0 mm 0 W/m2
06:39 7.5 °C 6.4 °C 981.3 hPa WNW 1.3 km/h 6.4 km/h 93% 0 mm 0 W/m2
06:44 7.4 °C 6.3 °C 981.3 hPa WNW 2.7 km/h 6.4 km/h 93.1% 0 mm 0 W/m2
06:49 7.4 °C 6.5 °C 981.3 hPa WNW 0.5 km/h 6.4 km/h 94% 0 mm 0 W/m2
06:54 7.2 °C 6.2 °C 981.3 hPa WNW 1.3 km/h 4.8 km/h 93.2% 0 mm 0 W/m2
06:59 7.2 °C 6.1 °C 981.3 hPa WNW 2.9 km/h 4.8 km/h 93% 0 mm 0 W/m2
07:04 7.2 °C 6.1 °C 981.3 hPa WNW 1.1 km/h 4.8 km/h 93% 0 mm 0 W/m2
07:09 7.3 °C 6.4 °C 981.6 hPa Calm     93.8% 0 mm 5 W/m2
07:14 7.5 °C 6.6 °C 981.6 hPa WNW 0.3 km/h 3.2 km/h 94% 0 mm 5 W/m2
07:19 7.4 °C 6.5 °C 981.6 hPa WNW 0.2 km/h 3.2 km/h 94% 0 mm 7 W/m2
07:24 7.2 °C 6.3 °C 981.6 hPa Calm     94% 0 mm 11 W/m2
07:29 7.1 °C 6.2 °C 981.6 hPa Calm     94% 0 mm 12 W/m2
07:34 6.9 °C 6.1 °C 981.3 hPa WNW 0.6 km/h 3.2 km/h 94% 0 mm 12 W/m2
07:39 6.9 °C 6.1 °C 981.3 hPa Calm   3.2 km/h 94% 0 mm 14 W/m2
07:44 7.1 °C 6.2 °C 981.3 hPa Calm   1.6 km/h 94% 0 mm 16 W/m2
07:49 7.2 °C 6.3 °C 981.3 hPa Calm     94% 0 mm 16 W/m2
07:54 7.2 °C 6.3 °C 981.3 hPa Calm     94% 0 mm 19 W/m2
07:59 7.2 °C 6.3 °C 981.3 hPa Calm     94% 0 mm 18 W/m2
08:04 7.2 °C 6.3 °C 981.3 hPa Calm     94% 0 mm 28 W/m2
08:09 7.3 °C 6.3 °C 981.3 hPa Calm   1.6 km/h 94% 0 mm 33 W/m2
08:14 7.3 °C 6.4 °C 981.3 hPa Calm     94% 0 mm 30 W/m2
08:19 7.5 °C 6.6 °C 981.6 hPa WNW 0.2 km/h 1.6 km/h 94% 0 mm 23 W/m2
08:24 7.6 °C 6.7 °C 981.3 hPa WNW 0.3 km/h 1.6 km/h 94% 0 mm 28 W/m2
08:29 7.7 °C 6.8 °C 981.3 hPa WNW 0.2 km/h 1.6 km/h 94% 0 mm 49 W/m2
08:34 7.9 °C 6.9 °C 981.3 hPa WNW 0.2 km/h 3.2 km/h 94% 0 mm 72 W/m2
08:39 8.1 °C 7.2 °C 981.3 hPa Calm   3.2 km/h 94% 0 mm 74 W/m2
08:44 8.2 °C 7.3 °C 981.3 hPa WNW 0.5 km/h 3.2 km/h 94% 0 mm 76 W/m2
08:49 8.3 °C 7.4 °C 981.6 hPa WNW 0.5 km/h 3.2 km/h 94% 0 mm 102 W/m2
08:54 8.3 °C 7.4 °C 981.6 hPa WNW 0.2 km/h 1.6 km/h 94% 0 mm 120 W/m2
08:59 8.5 °C 7.6 °C 981.6 hPa NW 1.8 km/h 6.4 km/h 94% 0 mm 141 W/m2
09:04 8.6 °C 7.7 °C 981.6 hPa NW 0.6 km/h 3.2 km/h 94% 0 mm 141 W/m2
09:09 8.6 °C 7.7 °C 981.6 hPa NW 1.1 km/h 6.4 km/h 94% 0 mm 118 W/m2
09:14 8.7 °C 7.8 °C 981.6 hPa NW 1.8 km/h 6.4 km/h 94% 0 mm 91 W/m2
09:19 8.8 °C 7.9 °C 981.6 hPa NW 1.8 km/h 4.8 km/h 94% 0 mm 100 W/m2
09:24 8.9 °C 8 °C 981.6 hPa NW 0.5 km/h 4.8 km/h 94% 0 mm 114 W/m2
09:29 9.1 °C 8.2 °C 981.6 hPa Calm   4.8 km/h 94% 0 mm 123 W/m2
09:34 9.2 °C 8.2 °C 981.6 hPa NNW 1.1 km/h 6.4 km/h 94% 0 mm 123 W/m2
09:39 9.3 °C 8.4 °C 981.6 hPa NNW 0.2 km/h 6.4 km/h 94% 0 mm 135 W/m2
09:44 9.6 °C 8.7 °C 981.6 hPa NNW 0.8 km/h 4.8 km/h 94% 0 mm 223 W/m2
09:49 10.1 °C 9.1 °C 981.6 hPa NNW 0.6 km/h 4.8 km/h 94% 0 mm 199 W/m2
09:54 10.2 °C 9.1 °C 981.3 hPa NE 2.7 km/h 12.9 km/h 93.3% 0 mm 63 W/m2
09:59 10 °C 8.9 °C 981.3 hPa ESE 2.1 km/h 6.4 km/h 93% 0 mm 95 W/m2
10:04 9.8 °C 8.7 °C 981.3 hPa ESE 1.1 km/h 4.8 km/h 92.6% 0 mm 192 W/m2
10:09 9.9 °C 8.7 °C 981.6 hPa Calm   4.8 km/h 92% 0 mm 192 W/m2
10:14 10.3 °C 9.1 °C 981.6 hPa ESE 0.2 km/h 3.2 km/h 92% 0 mm 248 W/m2
10:19 10.5 °C 9.2 °C 981.6 hPa ESE 1 km/h 4.8 km/h 91.7% 0 mm 146 W/m2
10:24 10.6 °C 9.2 °C 981.6 hPa ESE 1.4 km/h 4.8 km/h 91% 0 mm 134 W/m2
10:29 10.6 °C 9.2 °C 981.6 hPa ESE 1.1 km/h 4.8 km/h 91% 0 mm 128 W/m2
10:34 10.6 °C 9.2 °C 981.6 hPa ESE 0.6 km/h 3.2 km/h 90.6% 0 mm 294 W/m2
10:39 11.3 °C 9.8 °C 981.6 hPa ESE 1 km/h 6.4 km/h 90.7% 0 mm 392 W/m2
10:44 11.3 °C 9.7 °C 981.6 hPa ESE 3.1 km/h 8 km/h 89.6% 0 mm 380 W/m2
10:49 11.2 °C 9.3 °C 981.6 hPa ESE 2.4 km/h 6.4 km/h 87.9% 0 mm 388 W/m2
10:54 11.4 °C 9.3 °C 981.6 hPa ESE 1 km/h 6.4 km/h 87.2% 0 mm 420 W/m2
10:59 11.7 °C 9.6 °C 981.6 hPa ESE 1.6 km/h 4.8 km/h 87% 0 mm 281 W/m2
11:04 12 °C 9.9 °C 981.6 hPa ESE 2.7 km/h 8 km/h 87% 0 mm 304 W/m2
11:09 12 °C 9.7 °C 981.3 hPa SE 4.7 km/h 9.7 km/h 86% 0 mm 399 W/m2
11:14 11.7 °C 9.3 °C 981.3 hPa SSE 5.1 km/h 11.3 km/h 85.2% 0 mm 404 W/m2
11:19 11.7 °C 9.3 °C 981.3 hPa SSE 5.3 km/h 11.3 km/h 85.3% 0 mm 374 W/m2
11:24 11.8 °C 9.4 °C 981.3 hPa SSE 2.9 km/h 9.7 km/h 85.3% 0 mm 278 W/m2
11:29 12 °C 9.7 °C 981.3 hPa SSE 4.7 km/h 9.7 km/h 85.6% 0 mm 153 W/m2
11:34 11.8 °C 9.4 °C 981.3 hPa SSE 2.6 km/h 9.7 km/h 85% 0 mm 123 W/m2
11:39 11.8 °C 9.5 °C 981.3 hPa SSE 3.1 km/h 9.7 km/h 85.3% 0 mm 127 W/m2
11:44 11.7 °C 9.3 °C 981.3 hPa SSE 1 km/h 9.7 km/h 85% 0 mm 216 W/m2
11:49 11.7 °C 9.3 °C 981.3 hPa SSE 3.1 km/h 6.4 km/h 85% 0 mm 267 W/m2
11:54 11.9 °C 9.5 °C 981.3 hPa SSE 2.9 km/h 6.4 km/h 84.9% 0 mm 320 W/m2
11:59 12.3 °C 9.7 °C 981.3 hPa SSE 2.6 km/h 6.4 km/h 84% 0 mm 330 W/m2
12:04 12.5 °C 9.8 °C 981.3 hPa SSE 2.4 km/h 8 km/h 83.7% 0 mm 288 W/m2
12:09 12.4 °C 9.6 °C 981.3 hPa SSE 1.4 km/h 8 km/h 83% 0 mm 148 W/m2
12:14 12.2 °C 9.2 °C 981.3 hPa SSE 3.1 km/h 8 km/h 82.3% 0 mm 149 W/m2
12:19 11.9 °C 8.9 °C 981.3 hPa SSE 7.4 km/h 12.9 km/h 82% 0 mm 156 W/m2
12:24 11.8 °C 8.8 °C 981.3 hPa SSE 5.3 km/h 12.9 km/h 82.3% 0 mm 156 W/m2
12:29 11.7 °C 8.9 °C 981.3 hPa SSE 3.7 km/h 9.7 km/h 83% 0 mm 123 W/m2
12:34 11.8 °C 9.2 °C 981.3 hPa South 0.2 km/h 4.8 km/h 83.7% 0 mm 127 W/m2
12:39 11.9 °C 9.3 °C 981.3 hPa South 1.8 km/h 6.4 km/h 84% 0 mm 120 W/m2
12:44 11.9 °C 9.3 °C 981.3 hPa South 2.4 km/h 6.4 km/h 84% 0 mm 128 W/m2
12:49 11.8 °C 9.3 °C 981.3 hPa South 3.1 km/h 6.4 km/h 84% 0 mm 155 W/m2
12:54 11.7 °C 9 °C 981.3 hPa South 1.4 km/h 6.4 km/h 83.4% 0 mm 146 W/m2
12:59 12 °C 9.4 °C 981.3 hPa South 1.4 km/h 4.8 km/h 84% 0 mm 325 W/m2
13:04 12.3 °C 9.7 °C 981.3 hPa South 1.8 km/h 4.8 km/h 83.8% 0 mm 269 W/m2
13:09 12.4 °C 9.6 °C 981.3 hPa South 3.1 km/h 6.4 km/h 82.6% 0 mm 318 W/m2
13:14 12.4 °C 9.4 °C 981.3 hPa SSE 5 km/h 9.7 km/h 82% 0 mm 292 W/m2
13:19 12.5 °C 9.6 °C 981.3 hPa SSE 5.1 km/h 11.3 km/h 82.4% 0 mm 410 W/m2
13:24 12.9 °C 10.1 °C 981.3 hPa SE 6.1 km/h 12.9 km/h 82.7% 0 mm 376 W/m2
13:29 12.6 °C 9.4 °C 981.3 hPa SE 6.1 km/h 12.9 km/h 81.3% 0 mm 151 W/m2
13:34 12.4 °C 9.3 °C 981.3 hPa SE 6.9 km/h 14.5 km/h 81.6% 0 mm 308 W/m2
13:39 12.7 °C 9.7 °C 981.3 hPa SE 8.4 km/h 17.7 km/h 82% 0 mm 399 W/m2
13:44 12.7 °C 9.6 °C 981.3 hPa SSE 7.9 km/h 16.1 km/h 81% 0 mm 374 W/m2
13:49 12.7 °C 9.4 °C 981.6 hPa SE 6.9 km/h 12.9 km/h 80.9% 0 mm 348 W/m2
13:54 12.6 °C 9.3 °C 981.6 hPa SSE 10.3 km/h 16.1 km/h 80.6% 0 mm 302 W/m2
13:59 12.3 °C 9.1 °C 981.6 hPa SSE 5.3 km/h 12.9 km/h 81% 0 mm 114 W/m2
14:04 12.3 °C 9.3 °C 981.6 hPa SE 5.6 km/h 14.5 km/h 82% 0 mm 98 W/m2
14:09 12.2 °C 9.2 °C 981.6 hPa SSE 6.3 km/h 12.9 km/h 82% 0 mm 98 W/m2
14:14 12.1 °C 9.1 °C 981.6 hPa SE 4 km/h 11.3 km/h 82% 0 mm 104 W/m2
14:19 12.1 °C 9.1 °C 981.6 hPa SSE 6.8 km/h 16.1 km/h 82% 0 mm 93 W/m2
14:24 11.9 °C 8.9 °C 981.6 hPa SE 5.3 km/h 16.1 km/h 82% 0 mm 111 W/m2
14:29 12.1 °C 9.1 °C 981.6 hPa SSE 4.5 km/h 11.3 km/h 82% 0 mm 243 W/m2
14:34 12.2 °C 9.1 °C 981.9 hPa SSE 5.8 km/h 14.5 km/h 81.6% 0 mm 267 W/m2
14:39 12.2 °C 9 °C 981.9 hPa SSE 5.1 km/h 14.5 km/h 81% 0 mm 148 W/m2
14:44 12.3 °C 9.1 °C 981.9 hPa SSE 6.8 km/h 12.9 km/h 80.7% 0 mm 253 W/m2
14:49 12.5 °C 9.2 °C 981.9 hPa SE 6.4 km/h 14.5 km/h 80.5% 0 mm 248 W/m2
14:54 12.7 °C 9.3 °C 981.9 hPa SE 6.4 km/h 14.5 km/h 79.9% 0 mm 193 W/m2
14:59 12.6 °C 9.1 °C 981.9 hPa SSE 5.8 km/h 12.9 km/h 79% 0 mm 167 W/m2
15:04 12.6 °C 9.1 °C 981.9 hPa SSE 4.8 km/h 12.9 km/h 79% 0 mm 123 W/m2
15:09 12.4 °C 8.9 °C 981.9 hPa SSE 4.5 km/h 11.3 km/h 79% 0 mm 81 W/m2
15:14 12.3 °C 8.8 °C 981.9 hPa SSE 3.5 km/h 9.7 km/h 79% 0 mm 72 W/m2
15:19 12.2 °C 8.7 °C 981.9 hPa SSE 4.2 km/h 11.3 km/h 79% 0 mm 65 W/m2
15:24 12.2 °C 8.7 °C 981.9 hPa SSE 3.9 km/h 11.3 km/h 79% 0 mm 46 W/m2
15:29 12.1 °C 8.8 °C 981.9 hPa SSE 3.9 km/h 8 km/h 80% 0 mm 33 W/m2
15:34 12.1 °C 8.7 °C 981.9 hPa SE 4.3 km/h 9.7 km/h 80% 0 mm 32 W/m2
15:39 11.9 °C 8.7 °C 981.9 hPa SE 3.2 km/h 9.7 km/h 80% 0 mm 28 W/m2
15:44 11.9 °C 8.7 °C 982.3 hPa SE 3.9 km/h 11.3 km/h 80.5% 0 mm 23 W/m2
15:49 11.8 °C 8.6 °C 982.3 hPa SE 2.6 km/h 11.3 km/h 81% 0 mm 28 W/m2
15:54 11.7 °C 8.5 °C 982.3 hPa SE 3.1 km/h 8 km/h 81% 0 mm 28 W/m2
15:59 11.7 °C 8.6 °C 982.3 hPa SE 4.7 km/h 8 km/h 81.3% 0 mm 26 W/m2
16:04 11.6 °C 8.6 °C 982.3 hPa SE 3.2 km/h 8 km/h 82% 0 mm 26 W/m2
16:09 11.5 °C 8.5 °C 982.3 hPa SE 2.6 km/h 8 km/h 82% 0 mm 25 W/m2
16:14 11.4 °C 8.4 °C 982.3 hPa SE 2.7 km/h 8 km/h 82% 0 mm 21 W/m2
16:19 11.4 °C 8.4 °C 982.3 hPa SE 1.1 km/h 6.4 km/h 82% 0 mm 16 W/m2
16:24 11.3 °C 8.5 °C 982.6 hPa SE 0.6 km/h 4.8 km/h 83% 0 mm 14 W/m2
16:29 11.2 °C 8.4 °C 982.6 hPa SE 1.3 km/h 6.4 km/h 83% 0 mm 11 W/m2
16:34 11.2 °C 8.4 °C 982.6 hPa SE 0.2 km/h 6.4 km/h 83.5% 0 mm 7 W/m2
16:39 11.1 °C 8.5 °C 982.6 hPa SE 0.2 km/h 1.6 km/h 84% 0 mm 5 W/m2
16:44 10.9 °C 8.3 °C 982.6 hPa SE 0.3 km/h 3.2 km/h 84% 0 mm 0 W/m2
16:49 10.7 °C 8.2 °C 982.6 hPa SE 0.6 km/h 3.2 km/h 84.5% 0 mm 0 W/m2
16:54 10.6 °C 8.2 °C 982.6 hPa SE 0.6 km/h 4.8 km/h 85% 0 mm 0 W/m2
16:59 10.4 °C 8.1 °C 982.6 hPa SE 1.9 km/h 6.4 km/h 85% 0 mm 0 W/m2
17:04 10.3 °C 8 °C 983 hPa SE 1 km/h 6.4 km/h 85.2% 0 mm 0 W/m2
17:09 10.3 °C 8.1 °C 983 hPa SE 0.5 km/h 6.4 km/h 86% 0 mm 0 W/m2
17:14 10.2 °C 8.1 °C 983 hPa SE 1 km/h 4.8 km/h 86% 0 mm 0 W/m2
17:19 10.2 °C 7.9 °C 983 hPa SE 1.1 km/h 6.4 km/h 86% 0 mm 0 W/m2
17:24 10.1 °C 7.9 °C 983 hPa East 4.2 km/h 12.9 km/h 86% 0 mm 0 W/m2
17:29 10 °C 7.9 °C 983 hPa ENE 3.4 km/h 12.9 km/h 87% 0 mm 0 W/m2
17:34 10 °C 7.9 °C 983 hPa NE 4.8 km/h 12.9 km/h 87% 0 mm 0 W/m2
17:39 9.9 °C 7.8 °C 983.3 hPa NE 1.6 km/h 11.3 km/h 87% 0 mm 0 W/m2
17:44 9.9 °C 7.8 °C 983.3 hPa NE 1.8 km/h 8 km/h 87% 0 mm 0 W/m2
17:49 9.8 °C 7.7 °C 983.3 hPa NE 1.1 km/h 8 km/h 87% 0 mm 0 W/m2
17:54 9.7 °C 7.6 °C 983.3 hPa NE 0.5 km/h 4.8 km/h 87% 0 mm 0 W/m2
17:59 9.7 °C 7.7 °C 983.3 hPa NE 1.9 km/h 6.4 km/h 87.7% 0 mm 0 W/m2
18:04 9.6 °C 7.7 °C 983.3 hPa NE 1.8 km/h 6.4 km/h 88% 0 mm 0 W/m2
18:09 9.6 °C 7.7 °C 983.3 hPa NE 3.2 km/h 11.3 km/h 88% 0 mm 0 W/m2
18:14 9.4 °C 7.6 °C 983.6 hPa NE 2.9 km/h 8 km/h 88% 0 mm 0 W/m2
18:19 9.4 °C 7.5 °C 983.6 hPa NE 1 km/h 8 km/h 88% 0 mm 0 W/m2
18:24 9.4 °C 7.5 °C 983.6 hPa NE 1.4 km/h 4.8 km/h 88% 0 mm 0 W/m2
18:29 9.4 °C 7.6 °C 983.6 hPa NE 1.1 km/h 6.4 km/h 88.2% 0 mm 0 W/m2
18:34 9.4 °C 7.7 °C 983.6 hPa ENE 1.9 km/h 8 km/h 89% 0 mm 0 W/m2
18:39 9.3 °C 7.7 °C 983.6 hPa ENE 1.4 km/h 4.8 km/h 89% 0 mm 0 W/m2
18:44 9.3 °C 7.6 °C 983.6 hPa ENE 2.1 km/h 8 km/h 89% 0 mm 0 W/m2
18:49 9.3 °C 7.6 °C 983.6 hPa ENE 0.3 km/h 6.4 km/h 89% 0 mm 0 W/m2
18:54 9.3 °C 7.6 °C 984 hPa ENE 0.6 km/h 4.8 km/h 89% 0 mm 0 W/m2
18:59 9.3 °C 7.6 °C 984 hPa ENE 0.3 km/h 3.2 km/h 89% 0 mm 0 W/m2
19:04 9.2 °C 7.5 °C 984 hPa ENE 0.5 km/h 3.2 km/h 89% 0 mm 0 W/m2
19:09 9.2 °C 7.5 °C 984 hPa ENE 1 km/h 4.8 km/h 89% 0 mm 0 W/m2
19:14 9.2 °C 7.5 °C 984.3 hPa ENE 2.1 km/h 8 km/h 89% 0 mm 0 W/m2
19:19 9.2 °C 7.5 °C 984.3 hPa ENE 3.2 km/h 8 km/h 89% 0 mm 0 W/m2
19:24 9.2 °C 7.6 °C 984.3 hPa ENE 1.4 km/h 4.8 km/h 89.8% 0 mm 0 W/m2
19:29 9.1 °C 7.5 °C 984.6 hPa ENE 0.6 km/h 6.4 km/h 90% 0 mm 0 W/m2
19:34 9.1 °C 7.4 °C 984.6 hPa ENE 0.8 km/h 3.2 km/h 89.6% 0 mm 0 W/m2
19:39 9.1 °C 7.4 °C 984.6 hPa ENE 0.5 km/h 3.2 km/h 90% 0 mm 0 W/m2
19:44 9 °C 7.4 °C 984.6 hPa Calm   1.6 km/h 90% 0 mm 0 W/m2
19:49 8.9 °C 7.3 °C 984.6 hPa ENE 0.2 km/h 1.6 km/h 90% 0 mm 0 W/m2
19:54 9 °C 7.4 °C 984.6 hPa ENE 0.8 km/h 3.2 km/h 90% 0 mm 0 W/m2
19:59 9.1 °C 7.4 °C 984.6 hPa ENE 1.1 km/h 8 km/h 90% 0 mm 0 W/m2
20:04 9.1 °C 7.5 °C 985 hPa ENE 2.6 km/h 12.9 km/h 90% 0 mm 0 W/m2
20:09 9.2 °C 7.6 °C 985 hPa NE 3.1 km/h 8 km/h 90% 0 mm 0 W/m2
20:14 9.2 °C 7.6 °C 985 hPa NE 3.4 km/h 12.9 km/h 90% 0 mm 0 W/m2
20:19 9.2 °C 7.6 °C 985 hPa NE 3.2 km/h 16.1 km/h 90% 0 mm 0 W/m2
20:24 9.2 °C 7.6 °C 985 hPa NE 5 km/h 16.1 km/h 90% 0 mm 0 W/m2
20:29 9.3 °C 7.8 °C 985 hPa ENE 4.7 km/h 14.5 km/h 91% 0 mm 0 W/m2
20:34 9.3 °C 7.9 °C 985.3 hPa ENE 5 km/h 14.5 km/h 91% 0 mm 0 W/m2
20:39 9.3 °C 7.9 °C 985.3 hPa ENE 4 km/h 14.5 km/h 91% 0 mm 0 W/m2
20:44 9.3 °C 7.9 °C 985.3 hPa NE 4.8 km/h 12.9 km/h 91% 0 mm 0 W/m2
20:49 9.3 °C 7.9 °C 985.3 hPa NE 5.3 km/h 12.9 km/h 91% 0 mm 0 W/m2
20:54 9.3 °C 7.9 °C 985.3 hPa NE 6.8 km/h 12.9 km/h 91% 0 mm 0 W/m2
20:59 9.3 °C 7.9 °C 985.3 hPa ENE 6 km/h 14.5 km/h 91% 0 mm 0 W/m2
21:04 9.3 °C 7.9 °C 985.7 hPa ENE 3.7 km/h 14.5 km/h 91% 0 mm 0 W/m2
21:09 9.3 °C 7.9 °C 985.7 hPa NE 3.7 km/h 12.9 km/h 91% 0 mm 0 W/m2
21:14 9.3 °C 7.9 °C 985.7 hPa ENE 7.2 km/h 17.7 km/h 91% 0 mm 0 W/m2
21:19 9.3 °C 7.9 °C 985.7 hPa ENE 7.2 km/h 16.1 km/h 91% 0 mm 0 W/m2
21:24 9.3 °C 7.9 °C 986 hPa ENE 4.8 km/h 16.1 km/h 91% 0 mm 0 W/m2
21:29 9.4 °C 8 °C 986 hPa ENE 4.5 km/h 11.3 km/h 91% 0 mm 0 W/m2
21:34 9.4 °C 8 °C 986 hPa NE 5.8 km/h 12.9 km/h 91% 0 mm 0 W/m2
21:39 9.3 °C 7.9 °C 986 hPa NE 4.2 km/h 14.5 km/h 91% 0 mm 0 W/m2
21:44 9.3 °C 7.9 °C 986.3 hPa NE 5.3 km/h 11.3 km/h 91% 0 mm 0 W/m2
21:49 9.4 °C 8 °C 986.3 hPa NE 2.1 km/h 12.9 km/h 91% 0 mm 0 W/m2
21:54 9.4 °C 8 °C 986.3 hPa ENE 3.9 km/h 11.3 km/h 91% 0 mm 0 W/m2
21:59 9.4 °C 8 °C 986.3 hPa NE 5.8 km/h 16.1 km/h 91% 0 mm 0 W/m2
22:04 9.4 °C 8 °C 986.3 hPa NE 2.3 km/h 16.1 km/h 91% 0 mm 0 W/m2
22:09 9.4 °C 8 °C 986.7 hPa NE 3.7 km/h 8 km/h 91% 0 mm 0 W/m2
22:14 9.4 °C 8 °C 986.7 hPa NE 4.7 km/h 14.5 km/h 91% 0 mm 0 W/m2
22:19 9.4 °C 8 °C 986.7 hPa NE 2.1 km/h 11.3 km/h 91% 0 mm 0 W/m2
22:24 9.4 °C 8 °C 986.7 hPa NE 4.8 km/h 11.3 km/h 91.2% 0 mm 0 W/m2
22:29 9.3 °C 8 °C 986.7 hPa ENE 7.6 km/h 17.7 km/h 91.1% 0 mm 0 W/m2
22:34 9.4 °C 8 °C 986.7 hPa ENE 6.3 km/h 17.7 km/h 91% 0 mm 0 W/m2
22:39 9.3 °C 7.9 °C 987 hPa NE 6.3 km/h 16.1 km/h 91% 0 mm 0 W/m2
22:44 9.3 °C 7.9 °C 987 hPa ENE 4.7 km/h 16.1 km/h 91% 0 mm 0 W/m2
22:49 9.3 °C 7.9 °C 987 hPa NE 4.2 km/h 12.9 km/h 91% 0 mm 0 W/m2
22:54 9.3 °C 7.9 °C 987 hPa NE 5.3 km/h 17.7 km/h 91% 0 mm 0 W/m2
22:59 9.3 °C 7.9 °C 987 hPa ENE 4 km/h 17.7 km/h 91% 0 mm 0 W/m2
23:04 9.3 °C 7.9 °C 987.4 hPa ENE 7.6 km/h 16.1 km/h 91% 0 mm 0 W/m2
23:09 9.3 °C 7.9 °C 987.4 hPa ENE 5.6 km/h 16.1 km/h 91% 0 mm 0 W/m2
23:14 9.3 °C 7.9 °C 987.4 hPa ENE 9.7 km/h 17.7 km/h 91% 0 mm 0 W/m2
23:19 9.3 °C 7.9 °C 987.7 hPa ENE 8.2 km/h 17.7 km/h 91% 0 mm 0 W/m2
23:24 9.3 °C 8 °C 987.7 hPa NE 6.9 km/h 14.5 km/h 91.5% 0 mm 0 W/m2
23:29 9.3 °C 8.1 °C 987.7 hPa NE 4.5 km/h 12.9 km/h 91.8% 0 mm 0 W/m2
23:34 9.3 °C 8.1 °C 987.7 hPa NE 4.7 km/h 11.3 km/h 91.6% 0 mm 0 W/m2
23:39 9.3 °C 8.1 °C 988 hPa NE 4.7 km/h 11.3 km/h 91.4% 0 mm 0 W/m2
23:44 9.3 °C 8.1 °C 988 hPa NE 6.8 km/h 16.1 km/h 91.8% 0 mm 0 W/m2
23:49 9.4 °C 8 °C 988 hPa ENE 8.7 km/h 20.9 km/h 91% 0 mm 0 W/m2
23:54 9.3 °C 8.1 °C 988 hPa NE 4.5 km/h 16.1 km/h 91.4% 0 mm 0 W/m2
23:59 9.3 °C 8.1 °C 988.4 hPa NNE 2.1 km/h 11.3 km/h 91.8% 0 mm 0 W/m2
Bath Spa Weather
Compliments of Weather Underground - 2 mb